sensor_id;sensor_type;location;lat;lon;timestamp;P1;durP1;ratioP1;P2;durP2;ratioP2
18999;SDS011;9633;50.980;13.850;2023-06-24T00:00:20;15.90;;;11.60;;
18999;SDS011;9633;50.980;13.850;2023-06-24T00:01:53;15.47;;;11.87;;
18999;SDS011;9633;50.980;13.850;2023-06-24T00:03:26;13.20;;;11.17;;
18999;SDS011;9633;50.980;13.850;2023-06-24T00:05:01;18.80;;;12.90;;
18999;SDS011;9633;50.980;13.850;2023-06-24T00:06:34;14.30;;;12.80;;
18999;SDS011;9633;50.980;13.850;2023-06-24T00:08:08;16.43;;;13.90;;
18999;SDS011;9633;50.980;13.850;2023-06-24T00:09:41;18.17;;;12.20;;
18999;SDS011;9633;50.980;13.850;2023-06-24T00:11:13;16.87;;;12.77;;
18999;SDS011;9633;50.980;13.850;2023-06-24T00:12:47;13.97;;;12.00;;
18999;SDS011;9633;50.980;13.850;2023-06-24T00:14:20;14.83;;;12.77;;
18999;SDS011;9633;50.980;13.850;2023-06-24T00:15:55;15.50;;;11.90;;
18999;SDS011;9633;50.980;13.850;2023-06-24T00:17:28;15.40;;;11.27;;
18999;SDS011;9633;50.980;13.850;2023-06-24T00:19:01;14.90;;;12.70;;
18999;SDS011;9633;50.980;13.850;2023-06-24T00:20:36;14.87;;;12.47;;
18999;SDS011;9633;50.980;13.850;2023-06-24T00:22:09;14.40;;;12.33;;
18999;SDS011;9633;50.980;13.850;2023-06-24T00:23:45;14.10;;;12.03;;
18999;SDS011;9633;50.980;13.850;2023-06-24T00:25:20;14.70;;;12.47;;
18999;SDS011;9633;50.980;13.850;2023-06-24T00:26:54;15.33;;;12.17;;
18999;SDS011;9633;50.980;13.850;2023-06-24T00:28:27;13.43;;;12.03;;
18999;SDS011;9633;50.980;13.850;2023-06-24T00:30:00;15.20;;;12.43;;
18999;SDS011;9633;50.980;13.850;2023-06-24T00:31:33;13.93;;;12.40;;
18999;SDS011;9633;50.980;13.850;2023-06-24T00:33:08;16.13;;;12.10;;
18999;SDS011;9633;50.980;13.850;2023-06-24T00:34:43;14.87;;;11.87;;
18999;SDS011;9633;50.980;13.850;2023-06-24T00:36:17;16.00;;;11.87;;
18999;SDS011;9633;50.980;13.850;2023-06-24T00:37:51;15.00;;;12.47;;
18999;SDS011;9633;50.980;13.850;2023-06-24T00:39:29;14.27;;;12.33;;
18999;SDS011;9633;50.980;13.850;2023-06-24T00:41:03;14.30;;;12.20;;
18999;SDS011;9633;50.980;13.850;2023-06-24T00:42:37;17.33;;;12.70;;
18999;SDS011;9633;50.980;13.850;2023-06-24T00:44:10;18.60;;;12.77;;
18999;SDS011;9633;50.980;13.850;2023-06-24T00:45:44;14.50;;;12.80;;
18999;SDS011;9633;50.980;13.850;2023-06-24T00:47:19;19.07;;;12.70;;
18999;SDS011;9633;50.980;13.850;2023-06-24T00:48:54;15.03;;;13.07;;
18999;SDS011;9633;50.980;13.850;2023-06-24T00:50:30;17.23;;;14.20;;
18999;SDS011;9633;50.980;13.850;2023-06-24T00:52:05;16.33;;;13.97;;
18999;SDS011;9633;50.980;13.850;2023-06-24T00:53:42;17.57;;;13.60;;
18999;SDS011;9633;50.980;13.850;2023-06-24T00:55:15;18.50;;;14.97;;
18999;SDS011;9633;50.980;13.850;2023-06-24T00:56:51;19.60;;;14.53;;
18999;SDS011;9633;50.980;13.850;2023-06-24T00:58:26;22.73;;;15.60;;
18999;SDS011;9633;50.980;13.850;2023-06-24T01:00:01;20.27;;;16.30;;
18999;SDS011;9633;50.980;13.850;2023-06-24T01:01:41;18.83;;;15.67;;
18999;SDS011;9633;50.980;13.850;2023-06-24T01:03:16;19.03;;;15.63;;
18999;SDS011;9633;50.980;13.850;2023-06-24T01:04:49;23.27;;;17.07;;
18999;SDS011;9633;50.980;13.850;2023-06-24T01:06:23;21.93;;;16.20;;
18999;SDS011;9633;50.980;13.850;2023-06-24T01:08:01;24.73;;;16.07;;
18999;SDS011;9633;50.980;13.850;2023-06-24T01:09:35;22.83;;;16.80;;
18999;SDS011;9633;50.980;13.850;2023-06-24T01:11:08;22.37;;;16.50;;
18999;SDS011;9633;50.980;13.850;2023-06-24T01:12:42;22.80;;;16.97;;
18999;SDS011;9633;50.980;13.850;2023-06-24T01:14:15;21.70;;;16.87;;
18999;SDS011;9633;50.980;13.850;2023-06-24T01:15:51;19.83;;;16.17;;
18999;SDS011;9633;50.980;13.850;2023-06-24T01:17:27;21.90;;;17.83;;
18999;SDS011;9633;50.980;13.850;2023-06-24T01:19:12;25.27;;;17.00;;
18999;SDS011;9633;50.980;13.850;2023-06-24T01:21:04;23.37;;;17.10;;
18999;SDS011;9633;50.980;13.850;2023-06-24T01:22:53;21.77;;;16.77;;
18999;SDS011;9633;50.980;13.850;2023-06-24T01:24:48;21.97;;;16.20;;
18999;SDS011;9633;50.980;13.850;2023-06-24T01:26:35;23.53;;;17.73;;
18999;SDS011;9633;50.980;13.850;2023-06-24T01:28:40;25.23;;;17.57;;
18999;SDS011;9633;50.980;13.850;2023-06-24T01:30:35;27.10;;;18.53;;
18999;SDS011;9633;50.980;13.850;2023-06-24T01:32:25;26.80;;;18.83;;
18999;SDS011;9633;50.980;13.850;2023-06-24T01:34:09;26.13;;;19.17;;
18999;SDS011;9633;50.980;13.850;2023-06-24T01:35:50;25.53;;;18.70;;
18999;SDS011;9633;50.980;13.850;2023-06-24T01:37:25;27.70;;;19.97;;
18999;SDS011;9633;50.980;13.850;2023-06-24T01:39:02;28.43;;;19.63;;
18999;SDS011;9633;50.980;13.850;2023-06-24T01:40:37;26.97;;;20.27;;
18999;SDS011;9633;50.980;13.850;2023-06-24T01:42:17;26.30;;;20.57;;
18999;SDS011;9633;50.980;13.850;2023-06-24T01:43:52;29.33;;;21.07;;
18999;SDS011;9633;50.980;13.850;2023-06-24T01:45:27;26.83;;;19.93;;
18999;SDS011;9633;50.980;13.850;2023-06-24T01:47:05;28.03;;;21.80;;
18999;SDS011;9633;50.980;13.850;2023-06-24T01:48:42;27.87;;;22.67;;
18999;SDS011;9633;50.980;13.850;2023-06-24T01:50:18;31.37;;;22.40;;
18999;SDS011;9633;50.980;13.850;2023-06-24T01:51:55;29.73;;;21.30;;
18999;SDS011;9633;50.980;13.850;2023-06-24T01:53:31;30.53;;;21.60;;
18999;SDS011;9633;50.980;13.850;2023-06-24T01:55:10;32.63;;;21.57;;
18999;SDS011;9633;50.980;13.850;2023-06-24T01:56:48;29.23;;;21.37;;
18999;SDS011;9633;50.980;13.850;2023-06-24T01:58:24;28.33;;;21.50;;
18999;SDS011;9633;50.980;13.850;2023-06-24T01:59:57;30.93;;;22.17;;
18999;SDS011;9633;50.980;13.850;2023-06-24T02:01:52;27.60;;;21.33;;
18999;SDS011;9633;50.980;13.850;2023-06-24T02:03:27;28.03;;;21.17;;
18999;SDS011;9633;50.980;13.850;2023-06-24T02:05:03;30.90;;;22.43;;
18999;SDS011;9633;50.980;13.850;2023-06-24T02:06:39;27.60;;;21.77;;
18999;SDS011;9633;50.980;13.850;2023-06-24T02:08:13;28.60;;;22.00;;
18999;SDS011;9633;50.980;13.850;2023-06-24T02:09:48;30.70;;;22.13;;
18999;SDS011;9633;50.980;13.850;2023-06-24T02:11:23;30.20;;;21.97;;
18999;SDS011;9633;50.980;13.850;2023-06-24T02:12:58;33.20;;;22.50;;
18999;SDS011;9633;50.980;13.850;2023-06-24T02:14:32;32.23;;;24.13;;
18999;SDS011;9633;50.980;13.850;2023-06-24T02:16:06;34.70;;;23.20;;
18999;SDS011;9633;50.980;13.850;2023-06-24T02:17:41;30.03;;;22.03;;
18999;SDS011;9633;50.980;13.850;2023-06-24T02:19:15;29.43;;;21.37;;
18999;SDS011;9633;50.980;13.850;2023-06-24T02:20:51;27.27;;;21.80;;
18999;SDS011;9633;50.980;13.850;2023-06-24T02:22:23;26.47;;;20.93;;
18999;SDS011;9633;50.980;13.850;2023-06-24T02:23:57;29.50;;;21.70;;
18999;SDS011;9633;50.980;13.850;2023-06-24T02:25:30;27.37;;;21.67;;
18999;SDS011;9633;50.980;13.850;2023-06-24T02:27:05;27.87;;;22.63;;
18999;SDS011;9633;50.980;13.850;2023-06-24T02:28:39;27.30;;;21.40;;
18999;SDS011;9633;50.980;13.850;2023-06-24T02:30:13;31.57;;;22.57;;
18999;SDS011;9633;50.980;13.850;2023-06-24T02:31:47;29.27;;;21.03;;
18999;SDS011;9633;50.980;13.850;2023-06-24T02:33:21;28.83;;;21.30;;
18999;SDS011;9633;50.980;13.850;2023-06-24T02:34:54;27.10;;;21.33;;
18999;SDS011;9633;50.980;13.850;2023-06-24T02:36:33;28.53;;;20.97;;
18999;SDS011;9633;50.980;13.850;2023-06-24T02:38:07;31.33;;;22.37;;
18999;SDS011;9633;50.980;13.850;2023-06-24T02:39:40;30.23;;;21.97;;
18999;SDS011;9633;50.980;13.850;2023-06-24T02:41:16;27.33;;;21.67;;
18999;SDS011;9633;50.980;13.850;2023-06-24T02:42:49;24.30;;;21.13;;
18999;SDS011;9633;50.980;13.850;2023-06-24T02:44:22;26.10;;;21.40;;
18999;SDS011;9633;50.980;13.850;2023-06-24T02:45:56;28.50;;;22.57;;
18999;SDS011;9633;50.980;13.850;2023-06-24T02:47:30;28.03;;;21.23;;
18999;SDS011;9633;50.980;13.850;2023-06-24T02:49:04;27.47;;;20.37;;
18999;SDS011;9633;50.980;13.850;2023-06-24T02:50:37;27.90;;;20.90;;
18999;SDS011;9633;50.980;13.850;2023-06-24T02:52:16;24.70;;;20.53;;
18999;SDS011;9633;50.980;13.850;2023-06-24T02:53:49;25.63;;;20.70;;
18999;SDS011;9633;50.980;13.850;2023-06-24T02:55:29;24.67;;;20.17;;
18999;SDS011;9633;50.980;13.850;2023-06-24T02:57:07;26.07;;;21.13;;
18999;SDS011;9633;50.980;13.850;2023-06-24T02:59:06;26.17;;;20.00;;
18999;SDS011;9633;50.980;13.850;2023-06-24T03:00:41;29.20;;;20.77;;
18999;SDS011;9633;50.980;13.850;2023-06-24T03:02:14;26.33;;;21.20;;
18999;SDS011;9633;50.980;13.850;2023-06-24T03:03:48;29.53;;;21.50;;
18999;SDS011;9633;50.980;13.850;2023-06-24T03:05:22;26.67;;;22.83;;
18999;SDS011;9633;50.980;13.850;2023-06-24T03:06:59;28.83;;;22.80;;
18999;SDS011;9633;50.980;13.850;2023-06-24T03:08:36;30.33;;;23.43;;
18999;SDS011;9633;50.980;13.850;2023-06-24T03:10:09;31.53;;;24.20;;
18999;SDS011;9633;50.980;13.850;2023-06-24T03:11:43;29.47;;;23.83;;
18999;SDS011;9633;50.980;13.850;2023-06-24T03:13:24;30.93;;;23.57;;
18999;SDS011;9633;50.980;13.850;2023-06-24T03:15:18;37.50;;;25.77;;
18999;SDS011;9633;50.980;13.850;2023-06-24T03:16:51;34.67;;;25.70;;
18999;SDS011;9633;50.980;13.850;2023-06-24T03:18:27;36.50;;;25.87;;
18999;SDS011;9633;50.980;13.850;2023-06-24T03:20:00;34.23;;;25.80;;
18999;SDS011;9633;50.980;13.850;2023-06-24T03:21:35;37.30;;;27.67;;
18999;SDS011;9633;50.980;13.850;2023-06-24T03:23:12;33.13;;;26.57;;
18999;SDS011;9633;50.980;13.850;2023-06-24T03:24:46;34.83;;;26.27;;
18999;SDS011;9633;50.980;13.850;2023-06-24T03:26:20;33.73;;;26.80;;
18999;SDS011;9633;50.980;13.850;2023-06-24T03:27:52;36.50;;;26.33;;
18999;SDS011;9633;50.980;13.850;2023-06-24T03:29:26;36.77;;;27.30;;
18999;SDS011;9633;50.980;13.850;2023-06-24T03:31:15;35.97;;;26.33;;
18999;SDS011;9633;50.980;13.850;2023-06-24T03:32:49;32.93;;;25.47;;
18999;SDS011;9633;50.980;13.850;2023-06-24T03:34:22;36.93;;;26.70;;
18999;SDS011;9633;50.980;13.850;2023-06-24T03:35:57;37.20;;;28.10;;
18999;SDS011;9633;50.980;13.850;2023-06-24T03:37:33;36.57;;;28.33;;
18999;SDS011;9633;50.980;13.850;2023-06-24T03:39:08;40.47;;;27.73;;
18999;SDS011;9633;50.980;13.850;2023-06-24T03:40:42;35.87;;;28.20;;
18999;SDS011;9633;50.980;13.850;2023-06-24T03:42:16;34.83;;;28.20;;
18999;SDS011;9633;50.980;13.850;2023-06-24T03:43:50;35.73;;;27.33;;
18999;SDS011;9633;50.980;13.850;2023-06-24T03:45:24;35.00;;;28.47;;
18999;SDS011;9633;50.980;13.850;2023-06-24T03:46:57;36.60;;;27.80;;
18999;SDS011;9633;50.980;13.850;2023-06-24T03:48:30;38.40;;;28.10;;
18999;SDS011;9633;50.980;13.850;2023-06-24T03:50:04;39.70;;;28.10;;
18999;SDS011;9633;50.980;13.850;2023-06-24T03:51:38;37.07;;;26.47;;
18999;SDS011;9633;50.980;13.850;2023-06-24T03:53:12;38.27;;;28.10;;
18999;SDS011;9633;50.980;13.850;2023-06-24T03:54:46;33.90;;;27.77;;
18999;SDS011;9633;50.980;13.850;2023-06-24T03:56:21;35.43;;;26.60;;
18999;SDS011;9633;50.980;13.850;2023-06-24T03:57:54;32.00;;;25.33;;
18999;SDS011;9633;50.980;13.850;2023-06-24T03:59:27;37.37;;;26.40;;
18999;SDS011;9633;50.980;13.850;2023-06-24T04:01:01;28.93;;;25.33;;
18999;SDS011;9633;50.980;13.850;2023-06-24T04:02:35;34.90;;;26.20;;
18999;SDS011;9633;50.980;13.850;2023-06-24T04:04:07;31.47;;;25.40;;
18999;SDS011;9633;50.980;13.850;2023-06-24T04:05:41;33.90;;;26.37;;
18999;SDS011;9633;50.980;13.850;2023-06-24T04:07:14;31.50;;;23.73;;
18999;SDS011;9633;50.980;13.850;2023-06-24T04:09:01;35.00;;;25.37;;
18999;SDS011;9633;50.980;13.850;2023-06-24T04:10:34;33.20;;;24.70;;
18999;SDS011;9633;50.980;13.850;2023-06-24T04:12:10;34.33;;;24.97;;
18999;SDS011;9633;50.980;13.850;2023-06-24T04:13:44;34.50;;;25.10;;
18999;SDS011;9633;50.980;13.850;2023-06-24T04:15:20;33.27;;;24.00;;
18999;SDS011;9633;50.980;13.850;2023-06-24T04:16:53;30.97;;;25.33;;
18999;SDS011;9633;50.980;13.850;2023-06-24T04:18:27;29.33;;;24.27;;
18999;SDS011;9633;50.980;13.850;2023-06-24T04:20:00;35.80;;;25.43;;
18999;SDS011;9633;50.980;13.850;2023-06-24T04:21:34;31.40;;;24.37;;
18999;SDS011;9633;50.980;13.850;2023-06-24T04:23:08;29.47;;;24.07;;
18999;SDS011;9633;50.980;13.850;2023-06-24T04:24:42;32.37;;;25.10;;
18999;SDS011;9633;50.980;13.850;2023-06-24T04:26:15;32.07;;;25.30;;
18999;SDS011;9633;50.980;13.850;2023-06-24T04:27:49;31.10;;;24.50;;
18999;SDS011;9633;50.980;13.850;2023-06-24T04:29:23;32.43;;;23.63;;
18999;SDS011;9633;50.980;13.850;2023-06-24T04:30:56;28.93;;;23.33;;
18999;SDS011;9633;50.980;13.850;2023-06-24T04:32:30;31.43;;;23.87;;
18999;SDS011;9633;50.980;13.850;2023-06-24T04:34:03;27.13;;;22.20;;
18999;SDS011;9633;50.980;13.850;2023-06-24T04:35:37;33.57;;;23.33;;
18999;SDS011;9633;50.980;13.850;2023-06-24T04:37:10;28.07;;;22.60;;
18999;SDS011;9633;50.980;13.850;2023-06-24T04:38:43;27.53;;;22.67;;
18999;SDS011;9633;50.980;13.850;2023-06-24T04:40:17;27.60;;;22.47;;
18999;SDS011;9633;50.980;13.850;2023-06-24T04:41:50;28.00;;;23.30;;
18999;SDS011;9633;50.980;13.850;2023-06-24T04:43:25;26.03;;;20.73;;
18999;SDS011;9633;50.980;13.850;2023-06-24T04:44:59;27.17;;;20.30;;
18999;SDS011;9633;50.980;13.850;2023-06-24T04:46:32;24.03;;;20.30;;
18999;SDS011;9633;50.980;13.850;2023-06-24T04:48:06;24.97;;;20.17;;
18999;SDS011;9633;50.980;13.850;2023-06-24T04:49:39;27.53;;;19.07;;
18999;SDS011;9633;50.980;13.850;2023-06-24T04:51:12;25.53;;;18.57;;
18999;SDS011;9633;50.980;13.850;2023-06-24T04:52:44;24.73;;;19.00;;
18999;SDS011;9633;50.980;13.850;2023-06-24T04:54:17;22.43;;;17.93;;
18999;SDS011;9633;50.980;13.850;2023-06-24T04:55:51;23.93;;;17.67;;
18999;SDS011;9633;50.980;13.850;2023-06-24T04:57:25;23.97;;;18.93;;
18999;SDS011;9633;50.980;13.850;2023-06-24T04:59:01;24.57;;;17.93;;
18999;SDS011;9633;50.980;13.850;2023-06-24T05:00:34;24.47;;;18.30;;
18999;SDS011;9633;50.980;13.850;2023-06-24T05:02:07;20.83;;;17.37;;
18999;SDS011;9633;50.980;13.850;2023-06-24T05:03:41;23.23;;;18.57;;
18999;SDS011;9633;50.980;13.850;2023-06-24T05:05:14;23.13;;;16.67;;
18999;SDS011;9633;50.980;13.850;2023-06-24T05:06:47;20.03;;;17.07;;
18999;SDS011;9633;50.980;13.850;2023-06-24T05:08:21;19.63;;;17.47;;
18999;SDS011;9633;50.980;13.850;2023-06-24T05:09:54;23.20;;;17.83;;
18999;SDS011;9633;50.980;13.850;2023-06-24T05:11:27;21.53;;;19.03;;
18999;SDS011;9633;50.980;13.850;2023-06-24T05:13:00;22.93;;;18.57;;
18999;SDS011;9633;50.980;13.850;2023-06-24T05:14:35;26.30;;;19.70;;
18999;SDS011;9633;50.980;13.850;2023-06-24T05:16:08;23.57;;;19.57;;
18999;SDS011;9633;50.980;13.850;2023-06-24T05:17:42;25.17;;;20.40;;
18999;SDS011;9633;50.980;13.850;2023-06-24T05:19:15;24.80;;;19.80;;
18999;SDS011;9633;50.980;13.850;2023-06-24T05:20:48;25.57;;;21.23;;
18999;SDS011;9633;50.980;13.850;2023-06-24T05:22:22;27.03;;;21.30;;
18999;SDS011;9633;50.980;13.850;2023-06-24T05:23:55;25.63;;;20.93;;
18999;SDS011;9633;50.980;13.850;2023-06-24T05:25:29;27.67;;;21.73;;
18999;SDS011;9633;50.980;13.850;2023-06-24T05:27:03;27.20;;;21.90;;
18999;SDS011;9633;50.980;13.850;2023-06-24T05:28:37;25.80;;;22.33;;
18999;SDS011;9633;50.980;13.850;2023-06-24T05:30:12;26.70;;;22.10;;
18999;SDS011;9633;50.980;13.850;2023-06-24T05:31:46;26.37;;;22.93;;
18999;SDS011;9633;50.980;13.850;2023-06-24T05:33:18;25.53;;;20.90;;
18999;SDS011;9633;50.980;13.850;2023-06-24T05:34:51;26.03;;;22.63;;
18999;SDS011;9633;50.980;13.850;2023-06-24T05:36:24;27.07;;;22.60;;
18999;SDS011;9633;50.980;13.850;2023-06-24T05:37:57;31.27;;;23.73;;
18999;SDS011;9633;50.980;13.850;2023-06-24T05:39:31;30.60;;;26.03;;
18999;SDS011;9633;50.980;13.850;2023-06-24T05:41:04;28.47;;;25.47;;
18999;SDS011;9633;50.980;13.850;2023-06-24T05:42:37;28.63;;;25.20;;
18999;SDS011;9633;50.980;13.850;2023-06-24T05:44:10;31.03;;;25.17;;
18999;SDS011;9633;50.980;13.850;2023-06-24T05:45:45;28.53;;;24.77;;
18999;SDS011;9633;50.980;13.850;2023-06-24T05:47:18;30.87;;;26.13;;
18999;SDS011;9633;50.980;13.850;2023-06-24T05:48:52;30.67;;;27.07;;
18999;SDS011;9633;50.980;13.850;2023-06-24T05:50:25;31.23;;;27.00;;
18999;SDS011;9633;50.980;13.850;2023-06-24T05:51:58;31.40;;;27.53;;
18999;SDS011;9633;50.980;13.850;2023-06-24T05:53:31;30.53;;;27.20;;
18999;SDS011;9633;50.980;13.850;2023-06-24T05:55:05;32.60;;;27.57;;
18999;SDS011;9633;50.980;13.850;2023-06-24T05:56:38;30.53;;;26.40;;
18999;SDS011;9633;50.980;13.850;2023-06-24T05:58:12;31.30;;;26.43;;
18999;SDS011;9633;50.980;13.850;2023-06-24T05:59:45;30.37;;;27.07;;
18999;SDS011;9633;50.980;13.850;2023-06-24T06:01:19;30.20;;;26.83;;
18999;SDS011;9633;50.980;13.850;2023-06-24T06:02:53;36.13;;;27.10;;
18999;SDS011;9633;50.980;13.850;2023-06-24T06:04:26;29.97;;;26.30;;
18999;SDS011;9633;50.980;13.850;2023-06-24T06:05:58;32.07;;;25.73;;
18999;SDS011;9633;50.980;13.850;2023-06-24T06:07:32;31.60;;;26.20;;
18999;SDS011;9633;50.980;13.850;2023-06-24T06:09:06;33.13;;;27.60;;
18999;SDS011;9633;50.980;13.850;2023-06-24T06:10:39;35.93;;;27.47;;
18999;SDS011;9633;50.980;13.850;2023-06-24T06:12:13;33.73;;;28.23;;
18999;SDS011;9633;50.980;13.850;2023-06-24T06:13:46;30.13;;;26.90;;
18999;SDS011;9633;50.980;13.850;2023-06-24T06:15:18;36.67;;;27.37;;
18999;SDS011;9633;50.980;13.850;2023-06-24T06:16:53;34.23;;;26.93;;
18999;SDS011;9633;50.980;13.850;2023-06-24T06:18:26;34.57;;;26.80;;
18999;SDS011;9633;50.980;13.850;2023-06-24T06:19:59;35.03;;;28.30;;
18999;SDS011;9633;50.980;13.850;2023-06-24T06:21:32;36.93;;;28.87;;
18999;SDS011;9633;50.980;13.850;2023-06-24T06:23:06;38.30;;;27.00;;
18999;SDS011;9633;50.980;13.850;2023-06-24T06:24:39;35.80;;;27.87;;
18999;SDS011;9633;50.980;13.850;2023-06-24T06:26:12;34.60;;;28.57;;
18999;SDS011;9633;50.980;13.850;2023-06-24T06:27:46;33.43;;;26.90;;
18999;SDS011;9633;50.980;13.850;2023-06-24T06:29:18;35.03;;;27.90;;
18999;SDS011;9633;50.980;13.850;2023-06-24T06:30:51;34.63;;;28.70;;
18999;SDS011;9633;50.980;13.850;2023-06-24T06:32:26;39.57;;;30.03;;
18999;SDS011;9633;50.980;13.850;2023-06-24T06:34:03;37.80;;;28.17;;
18999;SDS011;9633;50.980;13.850;2023-06-24T06:35:36;36.50;;;28.70;;
18999;SDS011;9633;50.980;13.850;2023-06-24T06:37:09;34.00;;;28.30;;
18999;SDS011;9633;50.980;13.850;2023-06-24T06:38:43;34.67;;;28.57;;
18999;SDS011;9633;50.980;13.850;2023-06-24T06:40:16;35.17;;;26.70;;
18999;SDS011;9633;50.980;13.850;2023-06-24T06:41:49;38.77;;;29.30;;
18999;SDS011;9633;50.980;13.850;2023-06-24T06:43:22;35.27;;;28.20;;
18999;SDS011;9633;50.980;13.850;2023-06-24T06:44:55;39.07;;;28.83;;
18999;SDS011;9633;50.980;13.850;2023-06-24T06:46:28;36.73;;;28.87;;
18999;SDS011;9633;50.980;13.850;2023-06-24T06:48:03;38.83;;;28.40;;
18999;SDS011;9633;50.980;13.850;2023-06-24T06:49:38;34.43;;;28.07;;
18999;SDS011;9633;50.980;13.850;2023-06-24T06:51:12;36.83;;;29.80;;
18999;SDS011;9633;50.980;13.850;2023-06-24T06:52:45;36.77;;;29.33;;
18999;SDS011;9633;50.980;13.850;2023-06-24T06:54:18;36.30;;;30.20;;
18999;SDS011;9633;50.980;13.850;2023-06-24T06:55:51;34.57;;;29.30;;
18999;SDS011;9633;50.980;13.850;2023-06-24T06:57:24;35.30;;;28.80;;
18999;SDS011;9633;50.980;13.850;2023-06-24T06:58:59;36.47;;;26.40;;
18999;SDS011;9633;50.980;13.850;2023-06-24T07:00:32;34.97;;;26.73;;
18999;SDS011;9633;50.980;13.850;2023-06-24T07:02:05;34.57;;;26.50;;
18999;SDS011;9633;50.980;13.850;2023-06-24T07:03:40;30.30;;;25.43;;
18999;SDS011;9633;50.980;13.850;2023-06-24T07:05:14;31.07;;;25.03;;
18999;SDS011;9633;50.980;13.850;2023-06-24T07:06:47;30.63;;;24.87;;
18999;SDS011;9633;50.980;13.850;2023-06-24T07:08:19;32.37;;;26.10;;
18999;SDS011;9633;50.980;13.850;2023-06-24T07:09:52;31.87;;;25.10;;
18999;SDS011;9633;50.980;13.850;2023-06-24T07:11:24;31.53;;;25.47;;
18999;SDS011;9633;50.980;13.850;2023-06-24T07:12:58;29.33;;;24.00;;
18999;SDS011;9633;50.980;13.850;2023-06-24T07:14:31;28.83;;;24.50;;
18999;SDS011;9633;50.980;13.850;2023-06-24T07:16:04;31.07;;;24.63;;
18999;SDS011;9633;50.980;13.850;2023-06-24T07:17:37;29.37;;;22.97;;
18999;SDS011;9633;50.980;13.850;2023-06-24T07:19:12;32.97;;;24.13;;
18999;SDS011;9633;50.980;13.850;2023-06-24T07:20:45;31.50;;;24.27;;
18999;SDS011;9633;50.980;13.850;2023-06-24T07:22:18;26.70;;;21.70;;
18999;SDS011;9633;50.980;13.850;2023-06-24T07:23:51;26.40;;;22.30;;
18999;SDS011;9633;50.980;13.850;2023-06-24T07:25:25;29.90;;;22.63;;
18999;SDS011;9633;50.980;13.850;2023-06-24T07:26:59;26.97;;;21.90;;
18999;SDS011;9633;50.980;13.850;2023-06-24T07:28:33;27.33;;;21.87;;
18999;SDS011;9633;50.980;13.850;2023-06-24T07:30:06;29.83;;;21.33;;
18999;SDS011;9633;50.980;13.850;2023-06-24T07:31:40;30.70;;;23.20;;
18999;SDS011;9633;50.980;13.850;2023-06-24T07:33:15;32.60;;;24.43;;
18999;SDS011;9633;50.980;13.850;2023-06-24T07:34:49;34.67;;;24.87;;
18999;SDS011;9633;50.980;13.850;2023-06-24T07:36:22;30.83;;;23.50;;
18999;SDS011;9633;50.980;13.850;2023-06-24T07:37:56;32.00;;;23.07;;
18999;SDS011;9633;50.980;13.850;2023-06-24T07:39:29;29.00;;;22.53;;
18999;SDS011;9633;50.980;13.850;2023-06-24T07:41:02;30.93;;;21.57;;
18999;SDS011;9633;50.980;13.850;2023-06-24T07:42:35;29.27;;;22.43;;
18999;SDS011;9633;50.980;13.850;2023-06-24T07:44:08;27.33;;;22.07;;
18999;SDS011;9633;50.980;13.850;2023-06-24T07:45:42;29.70;;;22.03;;
18999;SDS011;9633;50.980;13.850;2023-06-24T07:47:16;27.77;;;20.90;;
18999;SDS011;9633;50.980;13.850;2023-06-24T07:48:50;26.57;;;20.70;;
18999;SDS011;9633;50.980;13.850;2023-06-24T07:50:24;22.10;;;19.17;;
18999;SDS011;9633;50.980;13.850;2023-06-24T07:51:57;25.60;;;20.30;;
18999;SDS011;9633;50.980;13.850;2023-06-24T07:53:30;23.60;;;18.30;;
18999;SDS011;9633;50.980;13.850;2023-06-24T07:55:05;23.37;;;18.77;;
18999;SDS011;9633;50.980;13.850;2023-06-24T07:56:38;25.03;;;19.57;;
18999;SDS011;9633;50.980;13.850;2023-06-24T07:58:11;23.23;;;18.77;;
18999;SDS011;9633;50.980;13.850;2023-06-24T07:59:44;24.33;;;18.20;;
18999;SDS011;9633;50.980;13.850;2023-06-24T08:01:18;24.70;;;19.20;;
18999;SDS011;9633;50.980;13.850;2023-06-24T08:02:51;23.37;;;18.57;;
18999;SDS011;9633;50.980;13.850;2023-06-24T08:04:25;20.90;;;17.90;;
18999;SDS011;9633;50.980;13.850;2023-06-24T08:06:00;20.47;;;17.00;;
18999;SDS011;9633;50.980;13.850;2023-06-24T08:07:33;19.50;;;17.40;;
18999;SDS011;9633;50.980;13.850;2023-06-24T08:09:06;20.67;;;16.07;;
18999;SDS011;9633;50.980;13.850;2023-06-24T08:10:39;19.50;;;15.83;;
18999;SDS011;9633;50.980;13.850;2023-06-24T08:12:12;20.38;;;17.50;;
18999;SDS011;9633;50.980;13.850;2023-06-24T08:13:45;18.60;;;14.90;;
18999;SDS011;9633;50.980;13.850;2023-06-24T08:15:18;19.27;;;14.93;;
18999;SDS011;9633;50.980;13.850;2023-06-24T08:16:53;16.73;;;14.93;;
18999;SDS011;9633;50.980;13.850;2023-06-24T08:18:26;16.97;;;14.43;;
18999;SDS011;9633;50.980;13.850;2023-06-24T08:20:00;17.20;;;15.40;;
18999;SDS011;9633;50.980;13.850;2023-06-24T08:21:35;18.67;;;15.80;;
18999;SDS011;9633;50.980;13.850;2023-06-24T08:23:09;18.07;;;16.00;;
18999;SDS011;9633;50.980;13.850;2023-06-24T08:24:42;18.33;;;15.97;;
18999;SDS011;9633;50.980;13.850;2023-06-24T08:26:15;20.43;;;16.27;;
18999;SDS011;9633;50.980;13.850;2023-06-24T08:27:48;16.77;;;14.97;;
18999;SDS011;9633;50.980;13.850;2023-06-24T08:29:22;17.10;;;14.83;;
18999;SDS011;9633;50.980;13.850;2023-06-24T08:30:54;16.80;;;15.10;;
18999;SDS011;9633;50.980;13.850;2023-06-24T08:32:27;21.37;;;15.13;;
18999;SDS011;9633;50.980;13.850;2023-06-24T08:34:00;16.93;;;13.70;;
18999;SDS011;9633;50.980;13.850;2023-06-24T08:35:34;16.23;;;12.30;;
18999;SDS011;9633;50.980;13.850;2023-06-24T08:37:09;14.33;;;11.50;;
18999;SDS011;9633;50.980;13.850;2023-06-24T08:38:42;14.97;;;12.20;;
18999;SDS011;9633;50.980;13.850;2023-06-24T08:40:15;16.83;;;12.70;;
18999;SDS011;9633;50.980;13.850;2023-06-24T08:41:51;15.50;;;13.17;;
18999;SDS011;9633;50.980;13.850;2023-06-24T08:43:24;16.33;;;12.37;;
18999;SDS011;9633;50.980;13.850;2023-06-24T08:44:57;13.87;;;12.23;;
18999;SDS011;9633;50.980;13.850;2023-06-24T08:46:31;14.33;;;12.83;;
18999;SDS011;9633;50.980;13.850;2023-06-24T08:48:06;13.40;;;11.80;;
18999;SDS011;9633;50.980;13.850;2023-06-24T08:49:42;13.57;;;11.60;;
18999;SDS011;9633;50.980;13.850;2023-06-24T08:51:20;13.30;;;10.93;;
18999;SDS011;9633;50.980;13.850;2023-06-24T08:53:00;12.73;;;10.73;;
18999;SDS011;9633;50.980;13.850;2023-06-24T08:54:40;13.93;;;10.40;;
18999;SDS011;9633;50.980;13.850;2023-06-24T08:56:14;13.10;;;8.83;;
18999;SDS011;9633;50.980;13.850;2023-06-24T08:57:49;9.40;;;8.40;;
18999;SDS011;9633;50.980;13.850;2023-06-24T08:59:22;11.13;;;7.50;;
18999;SDS011;9633;50.980;13.850;2023-06-24T09:00:56;10.87;;;8.10;;
18999;SDS011;9633;50.980;13.850;2023-06-24T09:02:29;8.27;;;6.37;;
18999;SDS011;9633;50.980;13.850;2023-06-24T09:04:04;9.70;;;8.07;;
18999;SDS011;9633;50.980;13.850;2023-06-24T09:05:37;9.17;;;7.87;;
18999;SDS011;9633;50.980;13.850;2023-06-24T09:07:11;10.23;;;7.80;;
18999;SDS011;9633;50.980;13.850;2023-06-24T09:08:53;9.30;;;7.00;;
18999;SDS011;9633;50.980;13.850;2023-06-24T09:10:30;9.40;;;6.73;;
18999;SDS011;9633;50.980;13.850;2023-06-24T09:12:04;8.27;;;7.03;;
18999;SDS011;9633;50.980;13.850;2023-06-24T09:13:46;8.63;;;7.10;;
18999;SDS011;9633;50.980;13.850;2023-06-24T09:15:19;7.77;;;6.57;;